4 De Coeur — FW6599 — position and weather

sailwx.info

Track history (hours):
 
Tides and Currents Weather Stations Pressure Air Temp Water Temp Dewpoint Dewpoint Depression Visibility Wind Speed Wind Dir Waves Ship Positions

4 De Coeur

Last reported at 2016-Jul-16 17:30 UTC. Time now 2016-Jul-28 10:35 UTC.
Position N 47°33' W 002°54'.
Warning: this ship's position is 11 days out of date.

Length 11 m.

Type: Pleasure craft. MMSI: 227523340.

Date/timePositionNaut miles runAvg speedWind from/ knotsBaromVisibWave heightAir tempDewpointWater temp
2016-Jul-16 17:30N 47°33' W 002°54'4 4.4
2016-Jul-16 16:33N 47°29' W 002°57'6 5.8
2016-Jul-16 15:33N 47°24' W 003°00'2 0.4
2016-Jul-16 10:33N 47°23' W 002°58'3 3.0
2016-Jul-16 09:33N 47°25' W 002°56'5 5.0
2016-Jul-16 08:33N 47°30' W 002°55'2 2.3
2016-Jul-16 07:29N 47°33' W 002°54'  
2016-Jul-11 12:27N 47°33' W 002°54'0 0.0
2016-Jul-11 11:30N 47°33' W 002°54'3 3.0
2016-Jul-11 10:33N 47°30' W 002°53'6 5.6
2016-Jul-11 09:33N 47°26' W 002°47'6 5.8
2016-Jul-11 08:33N 47°23' W 002°40'6 5.0
2016-Jul-11 07:28N 47°21' W 002°33'1 0.0
2016-Jul-10 12:03N 47°20' W 002°31'3 4.6
2016-Jul-10 11:30N 47°19' W 002°34'6 6.1
2016-Jul-10 10:34N 47°15' W 002°28'5 4.4
2016-Jul-10 09:32N 47°15' W 002°21'5 4.5
2016-Jul-10 08:32N 47°11' W 002°18'6 5.0
2016-Jul-10 07:20N 47°07' W 002°12'4 0.2
2016-Jul-09 10:08N 47°06' W 002°07'9 0.4
2016-Jul-08 13:24N 47°05' W 002°20'22 1.2
2016-Jul-07 19:33N 46°44' W 002°21'0 0.0
2016-Jul-07 16:30N 46°44' W 002°21'0 0.0
2016-Jul-07 15:15N 46°44' W 002°21'0 0.1
2016-Jul-07 13:33N 46°44' W 002°21'9 4.4
2016-Jul-07 11:31N 46°39' W 002°10'6 5.5
2016-Jul-07 10:30N 46°36' W 002°03'6 6.3
2016-Jul-07 09:33N 46°32' W 001°57'6 6.1
2016-Jul-07 08:33N 46°29' W 001°49'2 0.1
2016-Jul-06 19:32N 46°30' W 001°47'0 0.0
2016-Jul-06 18:32N 46°30' W 001°47'0 0.0
2016-Jul-06 17:32N 46°30' W 001°47'  
Track history (hours):
 
Tides and Currents Weather Stations Pressure Air Temp Water Temp Dewpoint Dewpoint Depression Visibility Wind Speed Wind Dir Waves Ship Positions

4 De Coeur

Last reported at 2016-Jul-16 17:30 UTC. Time now 2016-Jul-28 10:35 UTC.
Position N 47°33' W 002°54'.
Warning: this ship's position is 11 days out of date.

Length 11 m.

Type: Pleasure craft. MMSI: 227523340.

Date/timePositionNaut miles runAvg speedWind from/ knotsBaromVisibWave heightAir tempDewpointWater temp
2016-Jul-16 17:30N 47°33' W 002°54'4 4.4
2016-Jul-16 16:33N 47°29' W 002°57'6 5.8
2016-Jul-16 15:33N 47°24' W 003°00'2 0.4
2016-Jul-16 10:33N 47°23' W 002°58'3 3.0
2016-Jul-16 09:33N 47°25' W 002°56'5 5.0
2016-Jul-16 08:33N 47°30' W 002°55'2 2.3
2016-Jul-16 07:29N 47°33' W 002°54'  
2016-Jul-11 12:27N 47°33' W 002°54'0 0.0
2016-Jul-11 11:30N 47°33' W 002°54'3 3.0
2016-Jul-11 10:33N 47°30' W 002°53'6 5.6
2016-Jul-11 09:33N 47°26' W 002°47'6 5.8
2016-Jul-11 08:33N 47°23' W 002°40'6 5.0
2016-Jul-11 07:28N 47°21' W 002°33'1 0.0
2016-Jul-10 12:03N 47°20' W 002°31'3 4.6
2016-Jul-10 11:30N 47°19' W 002°34'6 6.1
2016-Jul-10 10:34N 47°15' W 002°28'5 4.4
2016-Jul-10 09:32N 47°15' W 002°21'5 4.5
2016-Jul-10 08:32N 47°11' W 002°18'6 5.0
2016-Jul-10 07:20N 47°07' W 002°12'4 0.2
2016-Jul-09 10:08N 47°06' W 002°07'9 0.4
2016-Jul-08 13:24N 47°05' W 002°20'22 1.2
2016-Jul-07 19:33N 46°44' W 002°21'0 0.0
2016-Jul-07 16:30N 46°44' W 002°21'0 0.0
2016-Jul-07 15:15N 46°44' W 002°21'0 0.1
2016-Jul-07 13:33N 46°44' W 002°21'9 4.4
2016-Jul-07 11:31N 46°39' W 002°10'6 5.5
2016-Jul-07 10:30N 46°36' W 002°03'6 6.3
2016-Jul-07 09:33N 46°32' W 001°57'6 6.1
2016-Jul-07 08:33N 46°29' W 001°49'2 0.1
2016-Jul-06 19:32N 46°30' W 001°47'0 0.0
2016-Jul-06 18:32N 46°30' W 001°47'0 0.0
2016-Jul-06 17:32N 46°30' W 001°47'  

Dump ship's entire track history